Terminal Aerodrome Forecast
Issued by NWS

Home | Current Version | Previous Version | Text Only | Print | Product List | Glossary Off
Versions: 1 2 3 4 5 6 7 8 9 10 11 12

000
FTUS43 KOAX 272320
TAFCDR
TAF
KCDR 272320Z 2800/2824 17015G22KT P6SM VCTS BKN120CB
     FM280600 30018G27KT P6SM SCT150
     FM281000 30010KT P6SM SKC=

USA.gov is the U.S. government's official web portal to all federal, state and local government web resources and services.